Time;durP1;ratioP1;P1;durP2;ratioP2;P2;SDS_P1;SDS_P2;PMS_P1;PMS_P2;Temp;Humidity;BMP_temperature;BMP_pressure;BME280_temperature;BME280_humidity;BME280_pressure;Samples;Min_cycle;Max_cycle;Signal;HPM_P1;HPM_P2
2023/07/29 00:04:00;;;;;;;;;;;;;;;19.71;62.28;98915.66;10331016;28;1956;-65
2023/07/29 00:08:56;;;;;;;;;;;;;;;19.73;62.05;98923.47;10330329;28;908;-65
2023/07/29 00:13:52;;;;;;;;;;;;;;;19.71;62.16;98918.31;10331355;28;892;-65
2023/07/29 00:18:48;;;;;;;;;;;;;;;19.72;62.01;98930.56;10329792;28;769;-65
2023/07/29 00:23:44;;;;;;;;;;;;;;;19.71;62.18;98931.53;10330589;28;1905;-65
2023/07/29 00:28:40;;;;;;;;;;;;;;;19.72;62.09;98920.00;10330255;28;783;-65
2023/07/29 00:33:36;;;;;;;;;;;;;;;19.70;62.02;98911.31;10329326;28;1316;-65
2023/07/29 00:38:32;;;;;;;;;;;;;;;19.70;62.01;98898.09;10329753;28;907;-65
2023/07/29 00:43:28;;;;;;;;;;;;;;;19.69;62.30;98888.47;10329546;28;1910;-65
2023/07/29 00:48:24;;;;;;;;;;;;;;;19.69;62.05;98894.59;10329449;28;875;-65
2023/07/29 00:53:19;;;;;;;;;;;;;;;19.70;62.01;98896.31;10329284;28;771;-65
2023/07/29 00:58:15;;;;;;;;;;;;;;;19.70;61.99;98896.31;10329675;28;888;-65
2023/07/29 01:03:11;;;;;;;;;;;;;;;19.69;62.07;98884.03;10328832;28;1894;-65
2023/07/29 01:08:07;;;;;;;;;;;;;;;19.70;61.97;98876.94;10327994;28;878;-65
2023/07/29 01:13:03;;;;;;;;;;;;;;;19.70;61.96;98872.53;10328440;28;818;-65
2023/07/29 01:17:59;;;;;;;;;;;;;;;19.69;61.94;98864.69;10329091;28;920;-65
2023/07/29 01:22:55;;;;;;;;;;;;;;;19.69;62.01;98872.59;10328855;28;1890;-65
2023/07/29 01:27:51;;;;;;;;;;;;;;;19.69;62.03;98865.50;10327814;28;754;-65
2023/07/29 01:32:47;;;;;;;;;;;;;;;19.68;61.93;98861.19;10327590;28;1192;-65
2023/07/29 01:37:43;;;;;;;;;;;;;;;19.69;61.98;98865.50;10326817;28;830;-65
2023/07/29 01:42:39;;;;;;;;;;;;;;;19.68;61.96;98853.25;10327125;28;1918;-65
2023/07/29 01:47:35;;;;;;;;;;;;;;;19.68;62.00;98861.19;10327627;28;867;-65
2023/07/29 01:52:30;;;;;;;;;;;;;;;19.68;61.89;98857.69;10327536;28;874;-65
2023/07/29 01:57:26;;;;;;;;;;;;;;;19.68;61.92;98857.69;10326095;28;1071;-65
2023/07/29 02:02:22;;;;;;;;;;;;;;;19.68;62.03;98841.84;10326481;28;1898;-65
2023/07/29 02:07:19;;;;;;;;;;;;;;;19.67;61.85;98840.13;10326553;28;864;-65
2023/07/29 02:23:05;;;;;;;;;;;;;;;19.66;61.83;98826.06;10516651;22;1955;-67
2023/07/29 02:28:03;;;;;;;;;;;;;;;19.66;61.86;98818.13;10244546;28;1200;-67
2023/07/29 02:33:01;;;;;;;;;;;;;;;19.67;61.91;98832.19;10244353;28;895;-67
2023/07/29 02:37:57;;;;;;;;;;;;;;;19.66;61.81;98825.19;10244217;28;894;-67
2023/07/29 02:43:06;;;;;;;;;;;;;;;19.66;61.85;98819.91;10243147;28;1968;-67
2023/07/29 02:48:05;;;;;;;;;;;;;;;19.66;61.85;98817.25;10244081;28;782;-67
2023/07/29 02:53:11;;;;;;;;;;;;;;;19.65;61.70;98816.41;10244548;28;949;-67
2023/07/29 03:03:14;;;;;;;;;;;;;;;19.65;61.88;98813.78;10243979;28;2028;-67
2023/07/29 03:18:47;;;;;;;;;;;;;;;19.66;61.66;98804.03;10237519;28;1434;-67
2023/07/29 03:23:43;;;;;;;;;;;;;;;19.64;61.83;98804.13;10243284;28;1894;-67
2023/07/29 03:28:57;;;;;;;;;;;;;;;19.63;61.65;98802.44;10243377;28;900;-67
2023/07/29 03:33:53;;;;;;;;;;;;;;;19.65;61.75;98812.94;10243300;28;783;-67
2023/07/29 03:38:51;;;;;;;;;;;;;;;19.64;61.78;98806.78;10242542;28;850;-67
2023/07/29 03:49:03;;;;;;;;;;;;;;;19.63;61.80;98814.81;10243160;28;605;-67
2023/07/29 03:53:59;;;;;;;;;;;;;;;19.63;61.65;98804.25;10244703;28;907;-67
2023/07/29 04:04:24;;;;;;;;;;;;;;;19.62;61.79;98797.25;10250148;28;1902;-67
2023/07/29 04:09:26;;;;;;;;;;;;;;;19.62;61.81;98795.47;10250362;28;857;-67
2023/07/29 04:14:22;;;;;;;;;;;;;;;19.63;61.74;98793.69;10248380;28;1456;-67
2023/07/29 04:19:27;;;;;;;;;;;;;;;19.63;61.85;98791.03;10249552;28;811;-67
2023/07/29 04:29:51;;;;;;;;;;;;;;;19.63;61.68;98828.03;10219845;28;1583;-68
2023/07/29 04:34:50;;;;;;;;;;;;;;;19.61;61.71;98820.19;10247481;28;1601;-67
2023/07/29 04:39:46;;;;;;;;;;;;;;;19.62;61.62;98821.91;10248548;28;866;-67
2023/07/29 04:44:49;;;;;;;;;;;;;;;19.61;61.77;98801.69;10248230;28;1910;-68
2023/07/29 04:55:04;;;;;;;;;;;;;;;19.61;61.84;98806.13;10238096;28;972;-67
2023/07/29 05:05:15;;;;;;;;;;;;;;;19.63;61.74;98793.69;10246475;28;1961;-69
2023/07/29 05:10:14;;;;;;;;;;;;;;;19.63;61.71;98796.31;10248008;28;767;-67
2023/07/29 05:20:24;;;;;;;;;;;;;;;19.63;61.89;98791.88;10245982;28;965;-68
2023/07/29 05:25:23;;;;;;;;;;;;;;;19.63;61.86;98791.88;10246373;28;1977;-67
2023/07/29 05:35:43;;;;;;;;;;;;;;;19.65;61.92;98828.78;10246264;28;605;-68
2023/07/29 05:45:58;;;;;;;;;;;;;;;19.63;61.81;98820.94;10234898;28;1085;-67
2023/07/29 06:01:38;;;;;;;;;;;;;;;19.65;61.87;98802.34;10244941;28;1874;-68
2023/07/29 06:11:49;;;;;;;;;;;;;;;19.64;62.06;98821.78;10244866;28;675;-67
2023/07/29 06:22:05;;;;;;;;;;;;;;;19.63;62.27;98854.47;10244060;28;1961;-67
2023/07/29 06:32:15;;;;;;;;;;;;;;;19.63;62.08;98876.47;10244149;28;1471;-67
2023/07/29 06:37:14;;;;;;;;;;;;;;;19.64;62.20;98874.66;10243765;28;900;-67
2023/07/29 06:42:11;;;;;;;;;;;;;;;19.62;62.15;98884.47;10244161;28;1918;-67
2023/07/29 06:47:10;;;;;;;;;;;;;;;19.62;62.07;98900.34;10244060;28;1076;-67
2023/07/29 06:52:16;;;;;;;;;;;;;;;19.61;62.03;98909.25;10243921;28;937;-66
2023/07/29 07:02:27;;;;;;;;;;;;;;;19.72;62.72;98908.56;10243363;28;1982;-67
2023/07/29 07:18:24;;;;;;;;;;;;;;;19.75;63.36;98924.22;10243076;28;656;-67
2023/07/29 07:23:23;;;;;;;;;;;;;;;19.76;63.86;98934.72;10242315;28;1953;-68
2023/07/29 07:28:19;;;;;;;;;;;;;;;19.77;63.85;98939.06;10247165;28;857;-68
2023/07/29 07:33:18;;;;;;;;;;;;;;;19.76;63.69;98934.72;10250454;28;1199;-67
2023/07/29 07:38:14;;;;;;;;;;;;;;;19.77;63.70;98939.06;10251583;28;1489;-67
2023/07/29 07:43:17;;;;;;;;;;;;;;;19.78;63.66;98937.25;10250721;28;1910;-66
2023/07/29 07:48:13;;;;;;;;;;;;;;;19.77;63.67;98939.06;10250447;28;864;-67
2023/07/29 07:53:12;;;;;;;;;;;;;;;19.78;63.78;98931.97;10250647;28;946;-67
2023/07/29 07:58:08;;;;;;;;;;;;;;;19.80;63.62;98930.91;10250075;28;974;-67
2023/07/29 08:03:04;;;;;;;;;;;;;;;19.81;63.75;98921.22;10249252;28;1898;-67
2023/07/29 08:08:09;;;;;;;;;;;;;;;19.81;63.57;98922.06;10249218;28;837;-67
2023/07/29 08:13:08;;;;;;;;;;;;;;;19.82;63.46;98918.44;10249683;28;1247;-67
2023/07/29 08:23:21;;;;;;;;;;;;;;;19.87;63.64;98926.09;10248417;28;1911;-65
2023/07/29 08:33:34;;;;;;;;;;;;;;;19.84;63.44;98931.59;10244185;28;1016;-68
2023/07/29 08:38:30;;;;;;;;;;;;;;;19.83;63.42;98941.31;10247623;28;818;-68
2023/07/29 08:43:26;;;;;;;;;;;;;;;19.82;63.36;98926.38;10247471;28;1906;-67
2023/07/29 08:48:22;;;;;;;;;;;;;;;19.87;63.06;98940.16;10247824;28;802;-68
2023/07/29 08:53:18;;;;;;;;;;;;;;;19.88;63.06;98938.38;10245940;28;976;-68
2023/07/29 10:01:26;;;;;;;;;;;;;;;19.95;62.77;98946.75;10244864;28;1918;-70
2023/07/29 10:17:02;;;;;;;;;;;;;;;19.96;62.73;98945.81;10245165;28;600;-71
2023/07/29 10:22:14;;;;;;;;;;;;;;;19.99;62.55;98942.94;10244122;28;1898;-71
2023/07/29 10:37:58;;;;;;;;;;;;;;;19.95;62.59;98937.03;10222689;28;1475;-74
2023/07/29 10:48:25;;;;;;;;;;;;;;;19.98;62.56;98923.59;10199949;28;1320;-73
2023/07/29 10:58:37;;;;;;;;;;;;;;;19.98;62.86;98933.34;10243100;28;795;-74
2023/07/29 11:03:39;;;;;;;;;;;;;;;20.04;62.62;98922.34;10246263;28;1972;-74
2023/07/29 11:08:39;;;;;;;;;;;;;;;20.05;62.47;98902.88;10252184;28;896;-74
2023/07/29 11:24:22;;;;;;;;;;;;;;;20.08;62.45;98924.69;10236822;28;1958;-73
2023/07/29 11:40:21;;;;;;;;;;;;;;;20.14;62.57;98910.19;10087531;29;1476;-73
2023/07/29 11:45:24;;;;;;;;;;;;;;;20.17;62.40;98915.28;10087702;28;1964;-72
2023/07/29 11:50:31;;;;;;;;;;;;;;;20.16;62.46;98915.41;10248922;28;1304;-72
2023/07/29 11:55:39;;;;;;;;;;;;;;;20.13;62.70;98913.81;10246739;28;1543;-71
2023/07/29 12:11:04;;;;;;;;;;;;;;;20.04;62.86;98924.97;10249103;28;620;-75
2023/07/29 12:16:11;;;;;;;;;;;;;;;20.04;62.99;98922.34;10247256;28;1175;-75
2023/07/29 12:21:23;;;;;;;;;;;;;;;20.04;63.03;98922.34;10247831;28;1898;-74
2023/07/29 12:26:25;;;;;;;;;;;;;;;20.05;63.05;98910.81;10230470;28;1607;-74
2023/07/29 12:31:22;;;;;;;;;;;;;;;20.08;63.17;98914.09;10245498;28;1424;-74
2023/07/29 12:41:38;;;;;;;;;;;;;;;20.24;63.03;98905.16;10247600;28;1893;-72
2023/07/29 12:46:38;;;;;;;;;;;;;;;20.28;63.24;98907.50;10247840;28;1342;-72
2023/07/29 12:51:41;;;;;;;;;;;;;;;20.28;63.48;98904.84;10247529;28;1358;-72
2023/07/29 12:56:40;;;;;;;;;;;;;;;20.32;63.38;98906.31;10244861;28;1452;-71
2023/07/29 13:01:49;;;;;;;;;;;;;;;20.36;63.33;98901.69;10246923;28;1979;-72
2023/07/29 13:06:48;;;;;;;;;;;;;;;20.34;63.47;98906.22;10247709;28;872;-75
2023/07/29 13:11:47;;;;;;;;;;;;;;;20.24;63.80;98916.56;10247000;28;942;-75
2023/07/29 13:16:46;;;;;;;;;;;;;;;20.28;63.53;98922.53;10246553;28;1377;-76
2023/07/29 13:21:45;;;;;;;;;;;;;;;20.27;63.53;98919.00;10246475;28;1898;-75
2023/07/29 13:26:44;;;;;;;;;;;;;;;20.25;63.66;98925.34;10245948;28;848;-75
2023/07/29 13:31:40;;;;;;;;;;;;;;;20.33;63.25;98918.63;10245643;28;879;-74
2023/07/29 13:36:39;;;;;;;;;;;;;;;20.28;63.24;98923.38;10246457;28;1313;-74
2023/07/29 13:41:41;;;;;;;;;;;;;;;20.32;62.90;98916.91;10245818;28;1898;-74
2023/07/29 13:51:52;;;;;;;;;;;;;;;20.29;62.98;98906.53;10244371;28;1294;-73
2023/07/29 13:56:56;;;;;;;;;;;;;;;20.40;62.88;98904.97;10245400;28;1343;-72
2023/07/29 14:01:56;;;;;;;;;;;;;;;20.34;62.93;98908.88;10243302;28;1910;-69
2023/07/29 14:07:03;;;;;;;;;;;;;;;20.40;62.89;98913.75;10244193;28;1329;-72
2023/07/29 14:12:00;;;;;;;;;;;;;;;20.35;62.87;98919.34;10231461;28;1477;-72
2023/07/29 14:32:54;;;;;;;;;;;;;;;20.27;63.29;98942.00;10551556;22;2032;-71
2023/07/29 14:37:53;;;;;;;;;;;;;;;20.24;63.41;98943.03;10284068;28;1428;-71
2023/07/29 14:42:48;;;;;;;;;;;;;;;20.25;63.52;98934.16;10284810;28;1918;-71
2023/07/29 14:47:44;;;;;;;;;;;;;;;20.23;63.38;98946.66;10285337;28;804;-71
2023/07/29 14:52:40;;;;;;;;;;;;;;;20.25;63.27;98952.69;10283887;28;1262;-71
2023/07/29 14:57:36;;;;;;;;;;;;;;;20.25;63.23;98955.34;10284736;28;798;-71
2023/07/29 15:02:32;;;;;;;;;;;;;;;20.27;63.43;98961.34;10284207;28;1898;-71
2023/07/29 15:07:28;;;;;;;;;;;;;;;20.32;63.24;98964.56;10284161;28;766;-71
2023/07/29 15:12:26;;;;;;;;;;;;;;;20.36;62.96;98971.34;10284660;28;888;-71
2023/07/29 15:17:22;;;;;;;;;;;;;;;20.31;63.28;98968.16;10283433;28;1030;-71
2023/07/29 15:22:18;;;;;;;;;;;;;;;20.27;63.26;98979.88;10284399;28;1901;-71
2023/07/29 15:27:15;;;;;;;;;;;;;;;20.26;63.35;98982.66;10284295;28;1221;-71
2023/07/29 15:32:14;;;;;;;;;;;;;;;20.25;63.27;99018.84;10281197;28;1485;-71
2023/07/29 15:37:10;;;;;;;;;;;;;;;20.24;63.58;99003.06;10283402;28;1313;-72
2023/07/29 15:42:06;;;;;;;;;;;;;;;20.24;63.51;99001.25;10282803;28;1914;-72
2023/07/29 15:47:02;;;;;;;;;;;;;;;20.25;63.27;99002.09;10281487;28;970;-72
2023/07/29 15:52:01;;;;;;;;;;;;;;;20.29;63.52;98996.53;10289543;28;825;-71
2023/07/29 15:56:57;;;;;;;;;;;;;;;20.35;63.25;98982.88;10290957;28;893;-71
2023/07/29 16:01:53;;;;;;;;;;;;;;;20.36;63.18;98968.69;10290161;28;1894;-72
2023/07/29 16:06:49;;;;;;;;;;;;;;;20.44;62.71;98970.84;10290074;28;766;-72
2023/07/29 16:11:44;;;;;;;;;;;;;;;20.45;62.75;98971.69;10290953;28;963;-72
2023/07/29 16:16:44;;;;;;;;;;;;;;;20.40;62.84;98974.63;10290859;28;883;-71
2023/07/29 16:21:43;;;;;;;;;;;;;;;20.35;62.85;98969.63;10289697;28;1890;-72
2023/07/29 16:26:39;;;;;;;;;;;;;;;20.36;62.74;98971.34;10289840;28;928;-72
2023/07/29 16:31:38;;;;;;;;;;;;;;;20.35;62.73;98959.03;10289713;28;1602;-72
2023/07/29 16:36:37;;;;;;;;;;;;;;;20.33;62.86;98957.44;10289707;28;946;-72
2023/07/29 16:41:39;;;;;;;;;;;;;;;20.31;62.76;98962.88;10288503;28;1906;-72
2023/07/29 16:46:38;;;;;;;;;;;;;;;20.31;62.68;98959.38;10288619;28;1233;-72
2023/07/29 16:51:37;;;;;;;;;;;;;;;20.30;62.79;98955.88;10289456;28;976;-72
2023/07/29 16:56:33;;;;;;;;;;;;;;;20.29;62.89;98950.69;10288786;28;834;-69
2023/07/29 17:01:39;;;;;;;;;;;;;;;20.28;62.79;98944.56;10288439;28;1897;-69
2023/07/29 17:06:35;;;;;;;;;;;;;;;20.27;62.98;98939.34;10288961;28;845;-73
2023/07/29 17:11:33;;;;;;;;;;;;;;;20.27;62.79;98940.19;10289296;28;871;-73
2023/07/29 17:16:29;;;;;;;;;;;;;;;20.27;62.80;98932.25;10287935;28;889;-73
2023/07/29 17:21:26;;;;;;;;;;;;;;;20.28;62.83;98923.38;10287922;28;1890;-72
2023/07/29 17:26:21;;;;;;;;;;;;;;;20.27;62.93;98932.25;10287570;28;1353;-72
2023/07/29 17:31:17;;;;;;;;;;;;;;;20.26;62.81;98927.91;10287337;28;1126;-73
2023/07/29 17:41:42;;;;;;;;;;;;;;;20.25;63.01;98933.28;10221784;28;1961;-73
2023/07/29 17:46:41;;;;;;;;;;;;;;;20.24;63.01;98937.75;10206061;28;845;-73
2023/07/29 17:51:43;;;;;;;;;;;;;;;20.26;63.09;98942.94;10205643;28;806;-73
2023/07/29 17:56:40;;;;;;;;;;;;;;;20.25;63.18;98934.16;10205474;28;813;-73
2023/07/29 18:01:53;;;;;;;;;;;;;;;20.24;63.23;98940.41;10204947;28;1886;-72
2023/07/29 18:06:52;;;;;;;;;;;;;;;20.24;63.23;98932.47;10204464;28;1218;-72
2023/07/29 18:12:08;;;;;;;;;;;;;;;20.24;63.15;98936.91;10204210;28;1490;-72
2023/07/29 18:17:38;;;;;;;;;;;;;;;20.22;63.32;98944.94;10204942;28;801;-74
2023/07/29 18:22:29;;;;;;;;;;;;;;;20.23;63.26;98936.06;10202513;28;1895;-71
2023/07/29 18:27:25;;;;;;;;;;;;;;;20.23;62.97;98964.34;10205335;28;881;-71
2023/07/29 18:32:25;;;;;;;;;;;;;;;20.22;62.98;98944.94;10235482;28;1289;-71
2023/07/29 18:37:25;;;;;;;;;;;;;;;20.21;62.98;98964.41;10244569;28;1213;-72
2023/07/29 18:42:36;;;;;;;;;;;;;;;20.21;63.06;98945.91;10242875;28;1914;-71
2023/07/29 18:47:35;;;;;;;;;;;;;;;20.21;63.13;98964.41;10244206;28;1085;-73
2023/07/29 18:52:39;;;;;;;;;;;;;;;20.22;62.95;98960.81;10243356;28;880;-73
2023/07/29 18:57:38;;;;;;;;;;;;;;;20.22;62.75;98960.81;10242361;28;1265;-72
2023/07/29 19:02:41;;;;;;;;;;;;;;;20.21;62.79;98956.47;10242436;28;1957;-74
2023/07/29 19:07:46;;;;;;;;;;;;;;;20.22;62.85;98960.81;10225337;28;1395;-74
2023/07/29 19:13:05;;;;;;;;;;;;;;;;;;;;;
2023/07/29 19:23:25;;;;;;;;;;;;;;;20.20;62.89;98986.56;10241250;28;1986;-75
2023/07/29 19:33:51;;;;;;;;;;;;;;;20.19;62.90;99032.47;10237007;28;975;-74
2023/07/29 19:38:53;;;;;;;;;;;;;;;20.19;62.88;99043.03;10250476;28;1384;-74
2023/07/29 19:44:05;;;;;;;;;;;;;;;20.19;62.70;99048.34;10250260;28;1989;-74
2023/07/29 19:49:15;;;;;;;;;;;;;;;20.18;62.92;99044.00;10249759;28;1006;-73
2023/07/29 19:54:15;;;;;;;;;;;;;;;20.17;62.67;99036.16;10251680;28;836;-74
2023/07/29 20:04:28;;;;;;;;;;;;;;;20.16;62.80;99022.09;10247545;28;1890;-74
2023/07/29 20:14:39;;;;;;;;;;;;;;;20.16;62.85;99014.16;10249644;28;620;-74
2023/07/29 20:24:40;;;;;;;;;;;;;;;20.16;62.62;99008.84;10248624;28;1898;-74
2023/07/29 20:29:40;;;;;;;;;;;;;;;20.16;62.52;99008.84;10248363;28;1406;-74
2023/07/29 20:40:34;;;;;;;;;;;;;;;20.16;62.66;98997.44;10191024;28;1162;-74
2023/07/29 20:45:36;;;;;;;;;;;;;;;20.15;62.47;98991.28;10248356;28;1903;-74
2023/07/29 20:50:41;;;;;;;;;;;;;;;20.15;62.57;98991.28;10248225;28;1273;-74
2023/07/29 20:55:41;;;;;;;;;;;;;;;20.14;62.50;98992.22;10248323;28;1403;-74
2023/07/29 21:00:53;;;;;;;;;;;;;;;20.14;62.46;98984.28;10235750;28;985;-74
2023/07/29 21:05:58;;;;;;;;;;;;;;;20.13;62.42;98988.72;10246864;28;1874;-74
2023/07/29 21:11:09;;;;;;;;;;;;;;;20.14;62.58;98981.63;10248089;28;1153;-75
2023/07/29 21:21:20;;;;;;;;;;;;;;;20.13;62.37;98987.88;10246557;28;809;-74
2023/07/29 21:26:37;;;;;;;;;;;;;;;20.13;62.36;98982.59;10247113;28;1237;-75
2023/07/29 21:31:42;;;;;;;;;;;;;;;20.13;62.48;98979.94;10246050;28;1312;-74
2023/07/29 21:36:53;;;;;;;;;;;;;;;20.13;62.41;98985.25;10247296;28;1229;-74
2023/07/29 21:41:50;;;;;;;;;;;;;;;20.12;62.36;98994.97;10243451;28;1973;-74
2023/07/29 21:46:45;;;;;;;;;;;;;;;20.13;62.47;98993.19;10245973;28;1310;-74
2023/07/29 21:51:42;;;;;;;;;;;;;;;20.13;62.12;99001.13;10246550;28;912;-74
2023/07/29 21:56:44;;;;;;;;;;;;;;;20.12;62.23;99016.16;10245513;28;1198;-73
2023/07/29 22:01:41;;;;;;;;;;;;;;;20.13;62.22;99024.94;10242549;28;1969;-73
2023/07/29 22:06:43;;;;;;;;;;;;;;;20.12;62.23;99010.84;10245322;28;1061;-74
2023/07/29 22:11:39;;;;;;;;;;;;;;;20.11;62.22;99026.81;10245766;28;875;-73
2023/07/29 22:16:44;;;;;;;;;;;;;;;20.12;62.28;99023.22;10244777;28;1259;-73
2023/07/29 22:21:44;;;;;;;;;;;;;;;20.12;62.19;99033.78;10243998;28;1902;-72
2023/07/29 22:32:31;;;;;;;;;;;;;;;20.12;62.31;99041.72;10093292;28;1375;-73
2023/07/29 22:37:28;;;;;;;;;;;;;;;20.13;62.17;99046.09;10244569;28;1550;-72
2023/07/29 22:47:33;;;;;;;;;;;;;;;20.13;62.27;99043.44;10893050;22;2342;-71
2023/07/29 22:52:42;;;;;;;;;;;;;;;20.12;62.28;99052.31;10306271;28;1718;-72
2023/07/29 22:57:49;;;;;;;;;;;;;;;20.12;62.30;99063.78;10318896;28;911;-74
2023/07/29 23:02:47;;;;;;;;;;;;;;;20.12;62.23;99070.84;10284501;28;1914;-71
2023/07/29 23:07:43;;;;;;;;;;;;;;;20.12;62.14;99076.13;10284403;28;1227;-73
2023/07/29 23:12:40;;;;;;;;;;;;;;;20.12;62.29;99077.00;10284993;28;929;-72
2023/07/29 23:17:36;;;;;;;;;;;;;;;20.10;62.03;99084.19;10284229;28;774;-73
2023/07/29 23:22:31;;;;;;;;;;;;;;;20.11;62.07;99077.94;10284304;28;1961;-74
2023/07/29 23:27:46;;;;;;;;;;;;;;;20.11;62.32;99075.28;10283481;28;1556;-74
2023/07/29 23:32:46;;;;;;;;;;;;;;;20.11;62.22;99080.56;10283948;28;1355;-74
2023/07/29 23:37:53;;;;;;;;;;;;;;;20.11;62.26;99087.66;10284278;28;901;-73
2023/07/29 23:42:49;;;;;;;;;;;;;;;20.11;62.24;99079.72;10283794;28;1963;-74
2023/07/29 23:47:49;;;;;;;;;;;;;;;20.10;62.29;99086.00;10283279;28;1447;-74
2023/07/29 23:52:44;;;;;;;;;;;;;;;20.10;62.23;99089.47;10283556;28;1357;-73
2023/07/29 23:57:50;;;;;;;;;;;;;;;20.10;62.27;99086.00;10282982;28;921;-74
